Apollo, Pennsylvania
Current Conditions -  °F | °C
As of 1:50 PM on Thursday 30 Oct 2014 (Local Time) from KLBE Reporting Station
Overcast Overcast  
Wind Chill: 44°   Ceiling: 5000
Heat Index: 48°   Visibility: 15mi
Dew Point: 39°   Wind: 9mph
Humidity: 71%   Direction: 270°W
Pressure: 30.09"   Gusts: NA
Location:  40.58°N, 79.57°W
Report Text: KLBE 301750Z 27008KT 15SM SCT030 OVC050 09/04 A3009
Loading
Personal Weather Stations






























Interactive Weather Map New forecast layout! Learn more

10-Day Weather Forecast

Advertisements
Track Severe Weather on mobile